Time;durP1;ratioP1;P1;durP2;ratioP2;P2;SDS_P1;SDS_P2;PMS_P1;PMS_P2;Temp;Humidity;BMP_temperature;BMP_pressure;BME280_temperature;BME280_humidity;BME280_pressure;Samples;Min_cycle;Max_cycle;Signal;HPM_P1;HPM_P2
2022/09/07 00:00:42;;;;;;;10.02;6.32;;;20.40;99.90;;;;;;5039041;28;20029;-73
2022/09/07 00:03:08;;;;;;;7.78;6.53;;;20.40;99.90;;;;;;5046030;28;20037;-74
2022/09/07 00:05:44;;;;;;;10.40;6.30;;;20.40;99.90;;;;;;5045453;28;20090;-73
2022/09/07 00:08:10;;;;;;;13.73;5.80;;;20.40;99.90;;;;;;5033074;28;20033;-73
2022/09/07 00:10:36;;;;;;;12.65;6.40;;;20.30;99.90;;;;;;5024408;28;20087;-73
2022/09/07 00:13:02;;;;;;;14.25;6.53;;;20.30;99.90;;;;;;5027145;28;20132;-74
2022/09/07 00:15:28;;;;;;;8.68;6.43;;;20.30;99.90;;;;;;5026747;28;20048;-74
2022/09/07 00:17:54;;;;;;;12.23;7.03;;;20.20;99.90;;;;;;5011388;28;20040;-74
2022/09/07 00:20:20;;;;;;;9.63;5.95;;;20.20;99.90;;;;;;5041064;28;20048;-74
2022/09/07 00:22:45;;;;;;;12.43;6.25;;;20.20;99.90;;;;;;5009817;28;20134;-74
2022/09/07 00:25:12;;;;;;;8.23;6.25;;;20.10;99.90;;;;;;5031642;28;20171;-73
2022/09/07 00:27:38;;;;;;;8.82;6.35;;;20.10;99.90;;;;;;5034542;28;20429;-74
2022/09/07 00:30:05;;;;;;;9.77;6.07;;;20.10;99.90;;;;;;5029872;28;20048;-74
2022/09/07 00:32:31;;;;;;;8.07;6.60;;;20.10;99.90;;;;;;5031506;28;20041;-73
2022/09/07 00:34:56;;;;;;;7.30;6.60;;;20.10;99.90;;;;;;5028712;28;20033;-73
2022/09/07 00:37:22;;;;;;;9.38;6.05;;;20.10;99.90;;;;;;5028467;28;20877;-73
2022/09/07 00:39:48;;;;;;;13.65;7.05;;;20.10;99.90;;;;;;5027242;28;20516;-73
2022/09/07 00:42:17;;;;;;;9.63;7.40;;;20.00;99.90;;;;;;5026478;28;20037;-73
2022/09/07 00:44:43;;;;;;;15.30;7.70;;;20.00;99.90;;;;;;5023203;28;20044;-73
2022/09/07 00:47:17;;;;;;;9.98;7.97;;;19.90;99.90;;;;;;5025690;28;20409;-73
2022/09/07 00:49:46;;;;;;;15.60;8.65;;;19.70;99.90;;;;;;5027752;28;20041;-73
2022/09/07 00:52:12;;;;;;;12.82;9.07;;;19.60;99.90;;;;;;5029047;28;20059;-74
2022/09/07 00:54:44;;;;;;;13.35;9.10;;;19.50;99.90;;;;;;5028413;28;20037;-74
2022/09/07 00:57:10;;;;;;;12.68;8.93;;;19.40;99.90;;;;;;5028928;28;20037;-73
2022/09/07 00:59:43;;;;;;;20.05;10.38;;;19.30;99.90;;;;;;5030115;28;20047;-73
2022/09/07 01:02:11;;;;;;;21.95;10.77;;;19.20;99.90;;;;;;5022926;28;20036;-73
2022/09/07 01:04:37;;;;;;;17.15;11.38;;;19.20;99.90;;;;;;5030260;28;20045;-73
2022/09/07 01:07:04;;;;;;;18.55;13.27;;;19.00;99.90;;;;;;5026236;28;20116;-73
2022/09/07 01:09:30;;;;;;;15.27;13.18;;;18.70;99.90;;;;;;5046177;28;20037;-73
2022/09/07 01:12:02;;;;;;;15.57;13.35;;;18.60;99.90;;;;;;5027090;28;20030;-74
2022/09/07 01:14:47;;;;;;;17.50;13.32;;;18.60;99.90;;;;;;5033935;28;20036;-74
2022/09/07 01:17:38;;;;;;;14.63;13.23;;;18.60;99.90;;;;;;5029129;28;20037;-74
2022/09/07 01:20:25;;;;;;;16.65;13.48;;;18.60;99.90;;;;;;5027010;28;20116;-74
2022/09/07 01:23:12;;;;;;;15.85;13.77;;;18.60;99.90;;;;;;5026052;28;20118;-74
2022/09/07 01:25:57;;;;;;;19.75;13.85;;;18.70;99.90;;;;;;5026016;28;20631;-74
2022/09/07 01:28:27;;;;;;;18.00;13.90;;;18.70;99.90;;;;;;5030695;28;20168;-74
2022/09/07 01:45:39;;;;;;;16.23;14.50;;;18.90;99.90;;;;;;5043757;28;20095;-73
2022/09/07 01:48:10;;;;;;;15.57;13.88;;;18.90;99.90;;;;;;5021586;28;20552;-73
2022/09/07 01:50:51;;;;;;;16.35;14.65;;;18.90;99.90;;;;;;5029176;28;20037;-73
2022/09/07 01:53:25;;;;;;;15.48;13.88;;;18.90;99.90;;;;;;5030908;28;20401;-73
2022/09/07 01:56:15;;;;;;;16.45;14.85;;;18.90;99.90;;;;;;5030115;28;20568;-73
2022/09/07 01:59:00;;;;;;;15.60;14.10;;;18.90;99.90;;;;;;5043983;28;20049;-73
2022/09/07 02:01:59;;;;;;;15.93;14.32;;;19.00;99.90;;;;;;5029844;28;20551;-74
2022/09/07 02:04:32;;;;;;;15.50;13.85;;;18.90;99.90;;;;;;5008434;28;20080;-74
2022/09/07 02:06:59;;;;;;;16.70;15.00;;;18.80;99.90;;;;;;5030538;28;20562;-75
2022/09/07 02:09:33;;;;;;;17.10;15.30;;;18.80;99.90;;;;;;5027137;28;20493;-75
2022/09/07 02:12:05;;;;;;;16.25;14.63;;;18.80;99.90;;;;;;5033382;28;20489;-75
2022/09/07 02:14:39;;;;;;;14.57;13.18;;;18.70;99.90;;;;;;5049745;28;20066;-74
2022/09/07 02:17:25;;;;;;;15.73;14.20;;;18.70;99.90;;;;;;5024954;28;20366;-74
2022/09/07 02:19:54;;;;;;;16.52;14.82;;;18.70;99.90;;;;;;5043841;28;20493;-74
2022/09/07 02:22:25;;;;;;;17.30;13.63;;;18.70;99.90;;;;;;5032988;28;20052;-74
2022/09/07 02:24:55;;;;;;;15.63;13.00;;;18.70;99.90;;;;;;5040723;28;20037;-73
2022/09/07 02:27:25;;;;;;;14.63;12.48;;;18.70;99.90;;;;;;5028015;28;20560;-73
2022/09/07 02:29:51;;;;;;;14.40;12.95;;;18.70;99.90;;;;;;5028662;28;20069;-73
2022/09/07 02:32:17;;;;;;;13.52;11.63;;;18.70;99.90;;;;;;5030517;28;20029;-74
2022/09/07 02:34:43;;;;;;;13.27;11.60;;;18.70;99.90;;;;;;5030859;28;20029;-73
2022/09/07 02:37:11;;;;;;;12.50;11.30;;;18.70;99.90;;;;;;5028398;28;20052;-73
2022/09/07 02:39:37;;;;;;;12.45;11.25;;;18.70;99.90;;;;;;5042756;28;20039;-74
2022/09/07 02:42:03;;;;;;;12.75;11.38;;;18.70;99.90;;;;;;5028870;28;20040;-74
2022/09/07 02:44:33;;;;;;;12.07;10.95;;;18.60;99.90;;;;;;5032689;28;20135;-74
2022/09/07 02:47:19;;;;;;;13.35;11.27;;;18.60;99.90;;;;;;5013117;28;20037;-74
2022/09/07 02:50:22;;;;;;;14.85;12.55;;;18.50;99.90;;;;;;5023211;28;20095;-73
2022/09/07 02:53:21;;;;;;;13.23;11.60;;;18.60;99.90;;;;;;5032100;28;20033;-74
2022/09/07 02:56:13;;;;;;;13.15;11.82;;;18.50;99.90;;;;;;5026501;28;20061;-73
2022/09/07 02:59:03;;;;;;;13.52;12.15;;;18.50;99.90;;;;;;5048538;28;20056;-74
2022/09/07 03:01:37;;;;;;;15.27;11.95;;;18.50;99.90;;;;;;5021404;28;20041;-74
2022/09/07 03:04:13;;;;;;;14.75;13.25;;;18.50;99.90;;;;;;5023474;28;20037;-73
2022/09/07 03:07:01;;;;;;;14.57;13.23;;;18.50;99.90;;;;;;5020624;28;20066;-74
2022/09/07 03:09:33;;;;;;;14.88;13.48;;;18.50;99.90;;;;;;5042652;28;20042;-74
2022/09/07 03:12:02;;;;;;;14.18;12.57;;;18.50;99.90;;;;;;5045567;28;20108;-74
2022/09/07 03:14:32;;;;;;;14.18;12.65;;;18.50;99.90;;;;;;5028412;28;20126;-74
2022/09/07 03:16:58;;;;;;;14.82;13.52;;;18.50;99.90;;;;;;5019062;28;20099;-73
2022/09/07 03:19:24;;;;;;;14.30;13.00;;;18.50;99.90;;;;;;5021826;28;20051;-74
2022/09/07 03:21:50;;;;;;;14.85;13.45;;;18.50;99.90;;;;;;5016767;28;20057;-73
2022/09/07 03:24:15;;;;;;;14.43;12.98;;;18.50;99.90;;;;;;5022069;28;20052;-74
2022/09/07 03:26:52;;;;;;;19.17;11.95;;;18.50;99.90;;;;;;5032017;28;20049;-74
2022/09/07 03:29:19;;;;;;;15.57;13.93;;;18.50;99.90;;;;;;5030586;28;20048;-73
2022/09/07 03:31:45;;;;;;;14.38;12.95;;;18.50;99.90;;;;;;5045012;28;20071;-74
2022/09/07 03:34:11;;;;;;;14.48;12.98;;;18.40;99.90;;;;;;5023484;28;20037;-74
2022/09/07 03:36:37;;;;;;;13.43;12.23;;;18.40;99.90;;;;;;5021415;28;20041;-74
2022/09/07 03:39:03;;;;;;;14.13;12.73;;;18.30;99.90;;;;;;5029612;28;20047;-74
2022/09/07 03:41:29;;;;;;;14.90;13.40;;;18.40;99.90;;;;;;5027397;28;20041;-74
2022/09/07 03:43:55;;;;;;;14.27;12.85;;;18.40;99.90;;;;;;5036018;28;20043;-74
2022/09/07 03:46:20;;;;;;;14.52;13.13;;;18.40;99.90;;;;;;5020711;28;20060;-74
2022/09/07 03:48:47;;;;;;;14.25;12.93;;;18.40;99.90;;;;;;5031000;28;20123;-74
2022/09/07 03:51:15;;;;;;;13.57;12.38;;;18.50;99.90;;;;;;5023515;28;20036;-74
2022/09/07 03:53:43;;;;;;;15.90;14.30;;;18.40;99.90;;;;;;5035226;28;20086;-74
2022/09/07 03:56:19;;;;;;;14.27;12.80;;;18.40;99.90;;;;;;5020684;28;20075;-74
2022/09/07 03:58:46;;;;;;;14.77;13.35;;;18.40;99.90;;;;;;5030936;28;20059;-74
2022/09/07 04:01:15;;;;;;;16.20;13.55;;;18.40;99.90;;;;;;5034930;28;20049;-74
2022/09/07 04:03:42;;;;;;;15.50;13.90;;;18.40;99.90;;;;;;5016730;28;20033;-74
2022/09/07 04:06:08;;;;;;;15.30;13.65;;;18.40;99.90;;;;;;5027671;28;20043;-74
2022/09/07 04:08:36;;;;;;;15.10;13.70;;;18.40;99.90;;;;;;5028859;28;20052;-74
2022/09/07 04:11:05;;;;;;;15.02;13.20;;;18.30;99.90;;;;;;5043778;28;20033;-74
2022/09/07 04:13:33;;;;;;;15.02;13.52;;;18.30;99.90;;;;;;5024771;28;20045;-74
2022/09/07 04:15:59;;;;;;;14.00;12.60;;;18.30;99.90;;;;;;5027314;28;20087;-74
2022/09/07 04:18:24;;;;;;;14.38;13.05;;;18.30;99.90;;;;;;5011745;28;20045;-74
2022/09/07 04:20:50;;;;;;;13.77;12.35;;;18.30;99.90;;;;;;5019861;28;20057;-74
2022/09/07 04:23:18;;;;;;;14.05;12.75;;;18.20;99.90;;;;;;5028812;28;20044;-74
2022/09/07 04:25:51;;;;;;;15.43;13.82;;;18.20;99.90;;;;;;5032115;28;20066;-74
2022/09/07 04:28:18;;;;;;;18.40;14.75;;;18.20;99.90;;;;;;5030029;28;20037;-74
2022/09/07 04:30:44;;;;;;;14.32;12.93;;;18.20;99.90;;;;;;5022847;28;20037;-74
2022/09/07 04:33:11;;;;;;;14.85;13.32;;;18.20;99.90;;;;;;5034020;28;20030;-74
2022/09/07 04:35:38;;;;;;;14.68;13.27;;;18.20;99.90;;;;;;5020464;28;20033;-74
2022/09/07 04:38:04;;;;;;;14.52;13.05;;;18.20;99.90;;;;;;5039621;28;20091;-74
2022/09/07 04:40:30;;;;;;;14.93;13.07;;;18.20;99.90;;;;;;5030283;28;20037;-74
2022/09/07 04:42:55;;;;;;;15.32;13.82;;;18.20;99.90;;;;;;5032543;28;20144;-74
2022/09/07 04:45:21;;;;;;;15.43;14.02;;;18.10;99.90;;;;;;5034314;28;20113;-74
2022/09/07 04:47:50;;;;;;;16.30;14.70;;;18.10;99.90;;;;;;5024941;28;20071;-74
2022/09/07 04:50:16;;;;;;;14.57;13.27;;;18.10;99.90;;;;;;5028095;28;20045;-74
2022/09/07 04:52:45;;;;;;;15.60;13.88;;;18.10;99.90;;;;;;5026976;28;20045;-74
2022/09/07 04:55:11;;;;;;;14.70;13.38;;;18.20;99.90;;;;;;5023541;28;20029;-74
2022/09/07 04:57:37;;;;;;;15.93;14.45;;;18.10;99.90;;;;;;5036627;28;20037;-74
2022/09/07 05:00:07;;;;;;;15.02;13.52;;;18.10;99.90;;;;;;5032815;28;20519;-74
2022/09/07 05:02:33;;;;;;;13.93;12.63;;;18.10;99.90;;;;;;5024038;28;20047;-75
2022/09/07 05:04:59;;;;;;;16.90;13.00;;;18.10;99.90;;;;;;5023289;28;20037;-74
2022/09/07 05:07:25;;;;;;;15.20;12.88;;;18.10;99.90;;;;;;5029516;28;20068;-74
2022/09/07 05:09:50;;;;;;;14.27;12.93;;;18.10;99.90;;;;;;5018477;28;20049;-74
2022/09/07 05:12:16;;;;;;;14.38;12.93;;;18.10;99.90;;;;;;5021742;28;20045;-74
2022/09/07 05:14:42;;;;;;;16.88;13.38;;;18.00;99.90;;;;;;5047616;28;20103;-74
2022/09/07 05:17:07;;;;;;;14.38;13.05;;;18.00;99.90;;;;;;5023522;28;20139;-74
2022/09/07 05:19:33;;;;;;;14.60;13.20;;;18.00;99.90;;;;;;5030026;28;20041;-74
2022/09/07 05:21:59;;;;;;;14.48;13.07;;;18.00;99.90;;;;;;5052634;28;20108;-74
2022/09/07 05:24:27;;;;;;;15.20;13.70;;;18.00;99.90;;;;;;5031230;28;20043;-74
2022/09/07 05:26:53;;;;;;;14.65;13.20;;;18.00;99.90;;;;;;5036300;28;20039;-74
2022/09/07 05:29:19;;;;;;;15.93;14.35;;;18.00;99.90;;;;;;5027889;28;20045;-74
2022/09/07 05:31:46;;;;;;;15.85;14.45;;;18.00;99.90;;;;;;5024291;28;20033;-74
2022/09/07 05:34:14;;;;;;;16.27;14.57;;;18.00;99.90;;;;;;5027919;28;20039;-74
2022/09/07 05:36:40;;;;;;;16.02;14.57;;;18.00;99.90;;;;;;5024915;28;20048;-74
2022/09/07 05:39:07;;;;;;;16.80;15.20;;;18.00;99.90;;;;;;5022792;28;20039;-74
2022/09/07 05:41:33;;;;;;;16.52;14.73;;;18.00;99.90;;;;;;5026638;28;20041;-74
2022/09/07 05:43:59;;;;;;;18.02;16.33;;;18.10;99.90;;;;;;5034682;28;20060;-74
2022/09/07 05:46:25;;;;;;;18.67;16.55;;;18.10;99.90;;;;;;5026892;28;20485;-74
2022/09/07 05:48:50;;;;;;;18.38;16.58;;;18.10;99.90;;;;;;5029702;28;20123;-74
2022/09/07 05:51:16;;;;;;;20.10;18.23;;;18.10;99.90;;;;;;5022566;28;20054;-74
2022/09/07 05:53:46;;;;;;;22.63;19.98;;;18.10;99.90;;;;;;5028267;28;20042;-74
2022/09/07 05:56:12;;;;;;;19.02;17.02;;;18.20;99.90;;;;;;5024288;28;20052;-74
2022/09/07 05:58:38;;;;;;;22.33;20.30;;;18.20;99.90;;;;;;5035303;28;20048;-74
2022/09/07 06:01:08;;;;;;;23.05;20.73;;;18.10;99.90;;;;;;5027273;28;20044;-74
2022/09/07 06:03:36;;;;;;;23.02;20.75;;;18.20;99.90;;;;;;5031754;28;20056;-74
2022/09/07 06:06:10;;;;;;;22.60;20.23;;;18.20;99.90;;;;;;5028615;28;20182;-74
2022/09/07 06:08:38;;;;;;;24.33;21.77;;;18.20;99.90;;;;;;5030170;28;20044;-74
2022/09/07 06:11:05;;;;;;;25.08;22.38;;;18.20;99.90;;;;;;5034981;28;20048;-75
2022/09/07 06:13:31;;;;;;;29.42;26.02;;;18.20;99.90;;;;;;5021135;28;20045;-74
2022/09/07 06:16:00;;;;;;;30.55;26.48;;;18.20;99.90;;;;;;5036831;28;20047;-74
2022/09/07 06:18:31;;;;;;;30.35;25.85;;;18.20;99.90;;;;;;5028738;28;20060;-74
2022/09/07 06:21:14;;;;;;;29.52;26.33;;;18.30;99.90;;;;;;5014935;28;20041;-74
2022/09/07 06:23:41;;;;;;;33.40;29.15;;;18.20;99.90;;;;;;5022139;28;20124;-74
2022/09/07 06:26:08;;;;;;;32.22;28.73;;;18.30;99.90;;;;;;5030449;28;20037;-74
2022/09/07 06:28:45;;;;;;;33.65;27.08;;;18.30;99.90;;;;;;5026149;28;20055;-73
2022/09/07 06:31:16;;;;;;;31.02;27.65;;;18.40;99.90;;;;;;5008388;28;20075;-74
2022/09/07 06:33:43;;;;;;;33.07;29.47;;;18.40;99.90;;;;;;5026414;28;20041;-74
2022/09/07 06:36:15;;;;;;;38.30;29.05;;;18.50;99.90;;;;;;5026722;28;20084;-74
2022/09/07 06:38:41;;;;;;;30.65;27.52;;;18.50;99.90;;;;;;5032478;28;20052;-74
2022/09/07 06:41:11;;;;;;;30.85;27.52;;;18.60;99.90;;;;;;5030439;28;20159;-73
2022/09/07 06:43:37;;;;;;;29.05;26.02;;;18.60;99.90;;;;;;5025211;28;20107;-74
2022/09/07 06:46:03;;;;;;;30.75;27.48;;;18.60;99.90;;;;;;5033298;28;20087;-74
2022/09/07 06:48:29;;;;;;;29.98;26.02;;;18.70;99.90;;;;;;5025043;28;20041;-74
2022/09/07 06:51:08;;;;;;;28.15;25.25;;;18.60;99.90;;;;;;5021665;28;20045;-74
2022/09/07 06:53:36;;;;;;;28.27;25.33;;;18.70;99.90;;;;;;5026549;28;20052;-73
2022/09/07 06:56:08;;;;;;;27.52;24.52;;;18.60;99.90;;;;;;5028900;28;20040;-74
2022/09/07 06:58:34;;;;;;;27.92;24.45;;;18.70;99.90;;;;;;5024938;28;20041;-73
2022/09/07 07:01:06;;;;;;;25.98;22.88;;;18.60;99.90;;;;;;5027829;28;22218;-74
2022/09/07 07:03:32;;;;;;;29.13;23.90;;;18.60;99.90;;;;;;5022891;28;20091;-74
2022/09/07 07:05:58;;;;;;;27.75;24.85;;;18.60;99.90;;;;;;5010397;28;20037;-74
2022/09/07 07:08:24;;;;;;;32.55;26.08;;;18.60;99.90;;;;;;5027524;28;20064;-75
2022/09/07 07:10:51;;;;;;;28.23;24.98;;;18.60;99.90;;;;;;5028057;28;20978;-74
2022/09/07 07:13:18;;;;;;;29.63;25.08;;;18.60;99.90;;;;;;5029790;28;20033;-74
2022/09/07 07:15:43;;;;;;;29.77;25.85;;;18.60;99.90;;;;;;5016078;28;20132;-74
2022/09/07 07:18:10;;;;;;;27.83;24.80;;;18.60;99.90;;;;;;5029852;28;20115;-75
2022/09/07 07:20:40;;;;;;;26.92;24.10;;;18.70;99.90;;;;;;5016871;28;20040;-74
2022/09/07 07:23:06;;;;;;;27.35;24.05;;;18.70;99.90;;;;;;5018402;28;20051;-74
2022/09/07 07:25:34;;;;;;;26.73;23.83;;;18.70;99.90;;;;;;5021624;28;20037;-74
2022/09/07 07:27:59;;;;;;;26.65;23.58;;;18.60;99.90;;;;;;5028478;28;20552;-74
2022/09/07 07:30:25;;;;;;;26.52;23.50;;;18.60;99.90;;;;;;5008307;28;20041;-74
2022/09/07 07:32:51;;;;;;;27.65;24.80;;;18.60;99.90;;;;;;5020968;28;20566;-74
2022/09/07 07:35:17;;;;;;;27.52;24.58;;;18.60;99.90;;;;;;5028490;28;20059;-74
2022/09/07 07:37:43;;;;;;;30.38;25.90;;;18.70;99.90;;;;;;5033048;28;20065;-74
2022/09/07 07:40:11;;;;;;;25.85;23.42;;;18.60;99.90;;;;;;5021747;28;20116;-74
2022/09/07 07:42:38;;;;;;;27.15;23.52;;;18.60;99.90;;;;;;5023039;28;20083;-74
2022/09/07 07:45:08;;;;;;;25.55;22.88;;;18.40;99.90;;;;;;5024483;28;20378;-74
2022/09/07 07:47:34;;;;;;;28.17;24.52;;;18.40;99.90;;;;;;5021350;28;20401;-74
2022/09/07 07:50:06;;;;;;;27.38;24.48;;;18.40;99.90;;;;;;5030126;28;20405;-74
2022/09/07 07:52:33;;;;;;;29.42;24.73;;;18.50;99.90;;;;;;5026084;28;20060;-74
2022/09/07 07:54:59;;;;;;;30.52;24.65;;;18.50;99.90;;;;;;5023560;28;20397;-74
2022/09/07 07:57:24;;;;;;;27.08;24.27;;;18.50;99.90;;;;;;5010564;28;20037;-74
2022/09/07 07:59:50;;;;;;;27.83;24.88;;;18.60;99.90;;;;;;5039895;28;20041;-74
2022/09/07 08:02:16;;;;;;;26.13;22.67;;;18.60;99.90;;;;;;5030501;28;20040;-74
2022/09/07 08:04:41;;;;;;;25.52;22.77;;;18.50;99.90;;;;;;5034224;28;20037;-74
2022/09/07 08:07:08;;;;;;;24.38;21.77;;;18.50;99.90;;;;;;5026798;28;20045;-74
2022/09/07 08:09:35;;;;;;;24.60;21.48;;;18.50;99.90;;;;;;5024880;28;20082;-74
2022/09/07 08:12:02;;;;;;;24.48;21.83;;;18.50;99.90;;;;;;5024565;28;20124;-74
2022/09/07 08:14:28;;;;;;;30.13;22.05;;;18.60;99.90;;;;;;5032166;28;20033;-74
2022/09/07 08:16:53;;;;;;;24.05;21.08;;;18.60;99.90;;;;;;5018408;28;20417;-74
2022/09/07 08:19:19;;;;;;;22.80;18.92;;;18.80;99.90;;;;;;5001993;28;20060;-74
2022/09/07 08:21:44;;;;;;;20.98;18.88;;;18.90;99.90;;;;;;5046010;28;20079;-74
2022/09/07 08:24:10;;;;;;;19.40;17.38;;;19.00;99.90;;;;;;5013392;28;20535;-74
2022/09/07 08:26:36;;;;;;;20.48;18.42;;;19.00;99.90;;;;;;5016168;28;20045;-74
2022/09/07 08:29:01;;;;;;;18.77;16.98;;;19.10;99.90;;;;;;5023470;28;20493;-74
2022/09/07 08:31:27;;;;;;;18.02;16.23;;;19.10;99.90;;;;;;5026988;28;20698;-74
2022/09/07 08:33:53;;;;;;;18.10;15.57;;;19.20;99.90;;;;;;5035604;28;20564;-74
2022/09/07 08:36:20;;;;;;;18.38;16.13;;;19.10;99.90;;;;;;5019716;28;20413;-74
2022/09/07 08:38:46;;;;;;;16.63;14.63;;;19.10;99.90;;;;;;5028380;28;20053;-73
2022/09/07 08:41:44;;;;;;;17.23;15.38;;;19.10;99.90;;;;;;5025367;28;20036;-74
2022/09/07 08:44:18;;;;;;;16.13;14.50;;;19.20;99.90;;;;;;5013787;28;20068;-74
2022/09/07 08:46:55;;;;;;;17.52;14.93;;;19.20;99.90;;;;;;5036788;28;20075;-74
2022/09/07 08:49:45;;;;;;;18.73;15.60;;;19.30;99.90;;;;;;5029045;28;20045;-74
2022/09/07 08:52:20;;;;;;;16.75;15.05;;;19.40;99.90;;;;;;5030934;28;20049;-74
2022/09/07 08:54:57;;;;;;;18.52;15.75;;;19.60;99.90;;;;;;5024466;28;20037;-74
2022/09/07 08:57:29;;;;;;;16.27;13.70;;;19.70;99.90;;;;;;5026150;28;20037;-74
2022/09/07 09:00:13;;;;;;;13.82;12.43;;;19.80;99.90;;;;;;5021507;28;20045;-74
2022/09/07 09:02:38;;;;;;;14.38;12.25;;;19.90;99.90;;;;;;5017521;28;20056;-74
2022/09/07 09:05:16;;;;;;;13.13;10.73;;;20.00;99.90;;;;;;5028034;28;20112;-74
2022/09/07 09:08:02;;;;;;;12.80;11.50;;;19.90;99.90;;;;;;5015701;28;20037;-74
2022/09/07 09:10:45;;;;;;;14.50;12.15;;;19.80;99.90;;;;;;5018062;28;20033;-74
2022/09/07 09:13:18;;;;;;;14.60;12.60;;;19.80;99.90;;;;;;5029116;28;20033;-74
2022/09/07 09:15:51;;;;;;;14.55;13.07;;;19.80;99.90;;;;;;5029438;28;20123;-74
2022/09/07 09:18:35;;;;;;;;;;;19.90;99.90;;;;;;5022856;28;20050;-74
2022/09/07 09:21:01;;;;;;;14.38;12.93;;;20.00;99.90;;;;;;5017145;28;19928;-74
2022/09/07 09:23:32;;;;;;;14.00;11.40;;;20.10;99.90;;;;;;5041076;28;20045;-73
2022/09/07 09:26:13;;;;;;;12.07;10.98;;;20.10;99.90;;;;;;5024773;28;20073;-74
2022/09/07 09:28:39;;;;;;;12.98;11.73;;;20.10;99.90;;;;;;5040585;28;20068;-73
2022/09/07 09:31:05;;;;;;;16.35;12.98;;;20.20;99.90;;;;;;5024713;28;20053;-74
2022/09/07 09:33:31;;;;;;;15.55;11.82;;;20.30;99.90;;;;;;5045199;28;20029;-74
2022/09/07 09:35:59;;;;;;;12.93;11.55;;;20.20;99.90;;;;;;5042192;28;20044;-75
2022/09/07 09:38:32;;;;;;;11.88;10.77;;;20.20;99.90;;;;;;5032852;28;20109;-74
2022/09/07 09:41:19;;;;;;;13.05;10.88;;;20.20;99.90;;;;;;5035572;28;20035;-74
2022/09/07 09:43:52;;;;;;;15.57;11.43;;;20.30;99.90;;;;;;5029096;28;20045;-74
2022/09/07 09:46:27;;;;;;;10.93;9.77;;;20.30;99.90;;;;;;5047041;28;20040;-74
2022/09/07 09:49:13;;;;;;;10.23;9.23;;;20.30;99.90;;;;;;5028202;28;20052;-74
2022/09/07 09:51:49;;;;;;;10.75;8.98;;;20.30;99.90;;;;;;5028682;28;20038;-74
2022/09/07 09:54:48;;;;;;;11.88;8.98;;;20.40;99.90;;;;;;5020246;28;20037;-74
2022/09/07 09:58:00;;;;;;;7.00;6.30;;;20.50;99.90;;;;;;5015029;28;20123;-74
2022/09/07 10:00:28;;;;;;;8.18;6.45;;;20.50;99.90;;;;;;5025867;28;20045;-74
2022/09/07 10:02:58;;;;;;;6.82;5.95;;;20.50;99.90;;;;;;5012600;28;20045;-74
2022/09/07 10:05:23;;;;;;;7.60;6.32;;;20.70;99.90;;;;;;5020966;28;20485;-74
2022/09/07 10:07:52;;;;;;;6.70;5.35;;;20.80;99.90;;;;;;5022585;28;20123;-74
2022/09/07 10:10:18;;;;;;;6.57;4.63;;;20.90;99.90;;;;;;5037446;28;20033;-74
2022/09/07 10:12:45;;;;;;;6.35;4.80;;;20.90;99.90;;;;;;5017997;28;20055;-73
2022/09/07 10:15:26;;;;;;;5.70;5.07;;;21.10;99.90;;;;;;5031918;28;20095;-74
2022/09/07 10:17:51;;;;;;;8.73;6.07;;;21.30;99.90;;;;;;5029009;28;20040;-74
2022/09/07 10:20:20;;;;;;;5.30;4.80;;;21.50;99.90;;;;;;5027006;28;20033;-74
2022/09/07 10:22:57;;;;;;;8.18;5.15;;;21.50;99.90;;;;;;5022743;28;20044;-74
2022/09/07 10:25:27;;;;;;;5.80;4.38;;;21.50;99.90;;;;;;5025754;28;20099;-74
2022/09/07 10:28:14;;;;;;;5.72;4.68;;;21.50;99.90;;;;;;5023230;28;20037;-74
2022/09/07 10:31:03;;;;;;;4.95;4.32;;;21.50;99.90;;;;;;5027471;28;20038;-74
2022/09/07 10:33:52;;;;;;;4.43;3.85;;;21.50;99.90;;;;;;4994777;28;20059;-74
2022/09/07 10:36:50;;;;;;;4.47;3.40;;;21.60;99.90;;;;;;5030855;28;20400;-74
2022/09/07 10:39:25;;;;;;;5.10;2.90;;;21.60;99.90;;;;;;5042323;28;20034;-74
2022/09/07 10:42:12;;;;;;;4.60;3.03;;;21.50;99.90;;;;;;5026221;28;20040;-73
2022/09/07 10:44:56;;;;;;;6.40;3.50;;;21.60;99.90;;;;;;5030792;28;20127;-74
2022/09/07 10:48:00;;;;;;;4.38;3.92;;;21.70;99.90;;;;;;5019713;28;20052;-74
2022/09/07 10:50:42;;;;;;;4.85;4.00;;;21.90;99.90;;;;;;4970918;28;20065;-74
2022/09/07 10:53:21;;;;;;;6.65;4.55;;;22.10;99.90;;;;;;5023291;28;20039;-74
2022/09/07 10:56:11;;;;;;;4.95;3.78;;;22.30;99.90;;;;;;5034125;28;20052;-74
2022/09/07 10:59:00;;;;;;;6.40;3.90;;;22.50;99.90;;;;;;5032984;28;20041;-73
2022/09/07 11:01:44;;;;;;;5.88;3.92;;;22.80;99.90;;;;;;5022797;28;20042;-74
2022/09/07 11:04:31;;;;;;;6.40;4.07;;;23.20;99.90;;;;;;5044157;28;20044;-74
2022/09/07 11:07:12;;;;;;;5.60;3.45;;;23.50;99.90;;;;;;5022839;28;20049;-74
2022/09/07 11:10:00;;;;;;;4.40;3.00;;;23.80;99.90;;;;;;5023545;28;20049;-73
2022/09/07 11:12:34;;;;;;;3.30;2.90;;;24.10;99.90;;;;;;5016224;28;20280;-74
2022/09/07 11:15:11;;;;;;;4.78;3.40;;;24.40;99.90;;;;;;5023334;28;20038;-74
2022/09/07 11:17:52;;;;;;;8.80;3.80;;;24.50;99.90;;;;;;5024442;28;20052;-74
2022/09/07 11:20:34;;;;;;;5.75;3.97;;;24.50;99.90;;;;;;5026182;28;20085;-74
2022/09/07 11:23:06;;;;;;;4.50;3.50;;;24.80;99.90;;;;;;5023046;28;20042;-74
2022/09/07 11:25:45;;;;;;;4.72;3.90;;;24.90;99.90;;;;;;5025220;28;20055;-73
2022/09/07 11:28:19;;;;;;;5.65;4.28;;;24.10;99.90;;;;;;5027722;28;20045;-73
2022/09/07 11:30:50;;;;;;;4.63;3.55;;;23.90;99.90;;;;;;5018899;28;20111;-74
2022/09/07 11:33:48;;;;;;;7.25;3.25;;;23.90;99.90;;;;;;5013130;28;20060;-73
2022/09/07 11:36:17;;;;;;;4.32;2.78;;;24.10;99.90;;;;;;5009640;28;20183;-74
2022/09/07 11:39:02;;;;;;;5.15;3.25;;;24.30;99.90;;;;;;5045505;28;20033;-73
2022/09/07 11:41:32;;;;;;;7.90;3.55;;;24.50;99.90;;;;;;5023844;28;20044;-73
2022/09/07 11:44:23;;;;;;;3.47;3.00;;;24.40;99.90;;;;;;5026883;28;20504;-73
2022/09/07 11:47:10;;;;;;;4.63;3.03;;;24.50;99.90;;;;;;5019402;28;20071;-74
2022/09/07 11:49:36;;;;;;;4.75;3.20;;;24.80;99.90;;;;;;5016007;28;20665;-73
2022/09/07 11:52:16;;;;;;;3.30;3.00;;;24.70;99.90;;;;;;5026365;28;20071;-73
2022/09/07 11:54:52;;;;;;;4.95;3.17;;;24.70;99.90;;;;;;5020281;28;20037;-73
2022/09/07 11:57:43;;;;;;;5.28;2.85;;;24.80;99.90;;;;;;5024408;28;20056;-74
2022/09/07 12:00:13;;;;;;;2.80;2.47;;;25.20;99.90;;;;;;5024154;28;20037;-72
2022/09/07 12:02:57;;;;;;;5.25;3.00;;;25.60;99.90;;;;;;5023986;28;20063;-73
2022/09/07 12:05:55;;;;;;;5.20;2.80;;;25.90;99.90;;;;;;5027124;28;20045;-73
2022/09/07 12:08:46;;;;;;;3.90;2.75;;;26.20;99.90;;;;;;5039701;28;20137;-73
2022/09/07 12:11:37;;;;;;;3.63;2.90;;;26.50;99.90;;;;;;5040123;28;20032;-73
2022/09/07 12:14:37;;;;;;;3.60;2.80;;;26.70;99.90;;;;;;5025009;28;20033;-74
2022/09/07 12:17:11;;;;;;;5.18;2.92;;;26.80;99.90;;;;;;5028770;28;20037;-73
2022/09/07 12:19:37;;;;;;;4.25;3.17;;;26.90;99.90;;;;;;5023223;28;20049;-73
2022/09/07 12:22:04;;;;;;;4.47;3.35;;;26.70;99.90;;;;;;5015110;28;20049;-74
2022/09/07 12:24:42;;;;;;;45.40;4.97;;;26.10;99.90;;;;;;5029065;28;20041;-73
2022/09/07 12:27:20;;;;;;;10.57;3.50;;;25.80;99.90;;;;;;5023397;28;20037;-73
2022/09/07 12:29:56;;;;;;;10.38;3.53;;;25.70;99.90;;;;;;5022433;28;20049;-73
2022/09/07 12:33:03;;;;;;;3.75;3.35;;;25.10;99.90;;;;;;5041450;28;20049;-73
2022/09/07 12:35:28;;;;;;;5.43;3.10;;;24.50;99.90;;;;;;5033006;28;20052;-74
2022/09/07 12:37:55;;;;;;;4.00;3.28;;;24.30;99.90;;;;;;5039851;28;20034;-73
2022/09/07 12:40:27;;;;;;;3.78;2.72;;;24.20;99.90;;;;;;5021855;28;20045;-74
2022/09/07 12:43:11;;;;;;;;;;;24.30;99.90;;;;;;5042388;28;20075;-74
2022/09/07 12:45:37;;;;;;;3.35;2.60;;;24.40;99.90;;;;;;5039518;28;20030;-73
2022/09/07 12:48:14;;;;;;;3.92;2.88;;;24.50;99.90;;;;;;5012528;28;20115;-73
2022/09/07 12:50:43;;;;;;;3.03;2.42;;;24.70;99.90;;;;;;5024927;28;20432;-73
2022/09/07 12:53:28;;;;;;;3.10;1.90;;;25.20;99.90;;;;;;5029714;28;20083;-73
2022/09/07 12:56:19;;;;;;;3.10;2.10;;;25.60;99.90;;;;;;5023546;28;20224;-72
2022/09/07 12:58:58;;;;;;;7.47;3.28;;;26.10;99.90;;;;;;5022514;28;20741;-73
2022/09/07 13:01:43;;;;;;;3.67;2.40;;;26.50;99.90;;;;;;5034426;28;20045;-73
2022/09/07 13:04:19;;;;;;;4.13;2.30;;;26.80;99.50;;;;;;5033282;28;20095;-73
2022/09/07 13:07:02;;;;;;;3.03;2.33;;;26.90;98.80;;;;;;5025356;28;20041;-73
2022/09/07 13:09:34;;;;;;;2.80;2.20;;;27.10;98.20;;;;;;5019830;28;20665;-73
2022/09/07 13:12:22;;;;;;;2.63;2.03;;;27.30;97.30;;;;;;5027568;28;20063;-73
2022/09/07 13:14:53;;;;;;;4.80;2.30;;;27.50;96.90;;;;;;5027505;28;20422;-73